createdAt,value
2022-09-30T00:01:46.048Z,99.90
2022-09-30T00:04:18.378Z,99.90
2022-09-30T00:06:47.387Z,99.90
2022-09-30T00:09:16.576Z,99.90
2022-09-30T00:11:46.302Z,99.90
2022-09-30T00:14:19.689Z,99.90
2022-09-30T00:16:48.469Z,99.90
2022-09-30T00:19:17.428Z,99.90
2022-09-30T00:21:45.772Z,99.90
2022-09-30T00:24:14.034Z,99.90
2022-09-30T00:26:42.255Z,99.90
2022-09-30T00:29:12.064Z,99.90
2022-09-30T00:31:42.036Z,99.90
2022-09-30T00:34:11.602Z,99.90
2022-09-30T00:36:44.642Z,99.90
2022-09-30T00:39:16.690Z,99.90
2022-09-30T00:41:47.236Z,99.90
2022-09-30T00:44:50.746Z,99.90
2022-09-30T00:47:43.434Z,99.90
2022-09-30T00:50:35.951Z,99.90
2022-09-30T00:53:13.154Z,99.90
2022-09-30T00:55:55.171Z,99.90
2022-09-30T00:58:31.445Z,99.90
2022-09-30T01:01:02.768Z,99.90
2022-09-30T01:03:36.678Z,99.90
2022-09-30T01:06:05.700Z,99.90
2022-09-30T01:08:39.173Z,99.90
2022-09-30T01:11:08.472Z,99.90
2022-09-30T01:13:40.030Z,99.90
2022-09-30T01:16:38.243Z,99.90
2022-09-30T01:19:31.919Z,99.90
2022-09-30T01:22:19.760Z,99.90
2022-09-30T01:25:41.706Z,99.90
2022-09-30T01:28:53.633Z,99.90
2022-09-30T01:31:46.892Z,99.90
2022-09-30T01:34:27.408Z,99.90
2022-09-30T01:37:11.630Z,99.90
2022-09-30T01:39:54.172Z,99.90
2022-09-30T01:42:35.162Z,99.90
2022-09-30T01:45:14.328Z,99.90
2022-09-30T01:47:56.886Z,99.90
2022-09-30T01:50:34.601Z,99.90
2022-09-30T01:53:17.298Z,99.90
2022-09-30T01:55:54.497Z,99.90
2022-09-30T01:58:38.933Z,99.90
2022-09-30T02:01:14.601Z,99.90
2022-09-30T02:03:51.665Z,99.90
2022-09-30T02:06:25.159Z,99.90
2022-09-30T02:09:00.896Z,99.90
2022-09-30T02:11:34.594Z,99.90
2022-09-30T02:14:07.875Z,99.90
2022-09-30T02:16:43.754Z,99.90
2022-09-30T02:19:23.044Z,99.90
2022-09-30T02:21:59.497Z,99.90
2022-09-30T02:24:36.898Z,99.90
2022-09-30T02:27:11.308Z,99.90
2022-09-30T02:29:49.817Z,99.90
2022-09-30T02:32:25.786Z,99.90
2022-09-30T02:35:03.084Z,99.90
2022-09-30T02:37:38.520Z,99.90
2022-09-30T02:40:14.908Z,99.90
2022-09-30T02:42:47.020Z,99.90
2022-09-30T02:45:20.821Z,99.90
2022-09-30T02:48:10.557Z,99.90
2022-09-30T02:50:49.847Z,99.90
2022-09-30T02:53:28.746Z,99.90
2022-09-30T02:56:24.362Z,99.90
2022-09-30T02:58:56.305Z,99.90
2022-09-30T03:01:26.418Z,99.90
2022-09-30T03:03:58.635Z,99.90
2022-09-30T03:06:28.880Z,99.90
2022-09-30T03:08:57.003Z,99.90
2022-09-30T03:11:29.076Z,99.90
2022-09-30T03:14:41.421Z,99.90
2022-09-30T03:18:01.567Z,99.90
2022-09-30T03:20:47.137Z,99.90
2022-09-30T03:23:41.385Z,99.90
2022-09-30T03:26:27.412Z,99.90
2022-09-30T03:29:16.011Z,99.90
2022-09-30T03:31:58.560Z,99.90
2022-09-30T03:34:33.420Z,99.90
2022-09-30T03:37:12.902Z,99.90
2022-09-30T03:39:57.773Z,99.90
2022-09-30T03:42:34.766Z,99.90
2022-09-30T03:45:12.873Z,99.90
2022-09-30T03:47:47.895Z,99.90
2022-09-30T03:50:22.319Z,99.90
2022-09-30T03:52:51.605Z,99.90
2022-09-30T03:55:23.343Z,99.90
2022-09-30T03:57:52.085Z,99.90
2022-09-30T04:00:20.403Z,99.90
2022-09-30T04:02:48.412Z,99.90
2022-09-30T04:05:16.641Z,99.90
2022-09-30T04:07:44.643Z,99.90
2022-09-30T04:10:13.134Z,99.90
2022-09-30T04:12:42.480Z,99.90
2022-09-30T04:15:11.984Z,99.90
2022-09-30T04:17:39.988Z,99.90
2022-09-30T04:20:08.724Z,99.90
2022-09-30T04:22:37.002Z,99.90
2022-09-30T04:25:06.090Z,99.90
2022-09-30T04:27:34.207Z,99.90
2022-09-30T04:30:03.752Z,99.90
2022-09-30T04:32:32.418Z,99.90
2022-09-30T04:35:00.406Z,99.90
2022-09-30T04:37:28.424Z,99.90
2022-09-30T04:39:56.413Z,99.90
2022-09-30T04:42:24.576Z,99.90
2022-09-30T04:44:52.823Z,99.90
2022-09-30T04:47:25.228Z,99.90
2022-09-30T04:49:53.285Z,99.90
2022-09-30T04:52:21.292Z,99.90
2022-09-30T04:54:49.320Z,99.90
2022-09-30T04:57:17.927Z,99.90
2022-09-30T04:59:45.918Z,99.90
2022-09-30T05:02:15.194Z,99.90
2022-09-30T05:04:45.009Z,99.90
2022-09-30T05:07:13.044Z,99.90
2022-09-30T05:09:41.052Z,99.90
2022-09-30T05:12:09.089Z,99.90
2022-09-30T05:14:37.151Z,99.90
2022-09-30T05:17:05.483Z,99.90
2022-09-30T05:19:33.600Z,99.90
2022-09-30T05:22:03.300Z,99.90
2022-09-30T05:24:31.393Z,99.90
2022-09-30T05:26:59.370Z,99.90
2022-09-30T05:29:27.407Z,99.90
2022-09-30T05:31:55.492Z,99.90
2022-09-30T05:34:23.536Z,99.90
2022-09-30T05:36:51.597Z,99.90
2022-09-30T05:39:21.037Z,99.90
2022-09-30T05:41:49.094Z,99.90
2022-09-30T05:44:17.092Z,99.90
2022-09-30T05:46:45.377Z,99.90
2022-09-30T05:49:13.511Z,99.90
2022-09-30T05:51:41.628Z,99.90
2022-09-30T05:54:11.205Z,99.90
2022-09-30T05:56:41.048Z,99.90
2022-09-30T05:59:09.249Z,99.90
2022-09-30T06:01:38.075Z,99.90
2022-09-30T06:04:06.166Z,99.90
2022-09-30T06:06:34.138Z,99.90
2022-09-30T06:09:02.174Z,99.90
2022-09-30T06:11:30.207Z,99.90
2022-09-30T06:13:59.589Z,99.90
2022-09-30T06:16:27.729Z,99.90
2022-09-30T06:18:55.756Z,99.90
2022-09-30T06:21:23.756Z,99.90
2022-09-30T06:23:51.769Z,99.90
2022-09-30T06:26:19.733Z,99.90
2022-09-30T06:28:47.825Z,99.90
2022-09-30T06:31:17.426Z,99.90
2022-09-30T06:33:46.617Z,99.90
2022-09-30T06:36:14.741Z,99.90
2022-09-30T06:38:42.886Z,99.90
2022-09-30T06:41:10.990Z,99.90
2022-09-30T06:43:48.598Z,99.90
2022-09-30T06:46:31.469Z,99.90
2022-09-30T06:49:12.080Z,99.90
2022-09-30T06:51:42.256Z,99.90
2022-09-30T06:54:10.958Z,99.90
2022-09-30T06:56:39.149Z,99.90
2022-09-30T06:59:07.255Z,99.90
2022-09-30T07:01:36.825Z,99.90
2022-09-30T07:04:09.562Z,99.90
2022-09-30T07:06:38.785Z,99.90
2022-09-30T07:09:07.768Z,99.90
2022-09-30T07:11:37.754Z,99.90
2022-09-30T07:14:06.361Z,99.90
2022-09-30T07:16:36.096Z,99.90
2022-09-30T07:19:06.858Z,99.90
2022-09-30T07:21:35.131Z,99.90
2022-09-30T07:24:03.527Z,99.90
2022-09-30T07:26:31.717Z,99.90
2022-09-30T07:29:00.994Z,99.90
2022-09-30T07:31:34.504Z,99.90
2022-09-30T07:34:07.655Z,99.90
2022-09-30T07:36:37.722Z,99.90
2022-09-30T07:39:08.856Z,99.90
2022-09-30T07:41:40.209Z,99.90
2022-09-30T07:44:14.322Z,99.90
2022-09-30T07:46:44.363Z,99.90
2022-09-30T07:49:25.353Z,99.90
2022-09-30T07:51:56.366Z,99.90
2022-09-30T07:54:28.910Z,99.90
2022-09-30T07:57:09.608Z,99.90
2022-09-30T07:59:41.610Z,99.90
2022-09-30T08:02:16.361Z,99.90
2022-09-30T08:04:46.602Z,99.90
2022-09-30T08:07:18.307Z,99.90
2022-09-30T08:09:46.450Z,99.90
2022-09-30T08:12:14.736Z,99.90
2022-09-30T08:14:44.552Z,99.90
2022-09-30T08:17:12.759Z,99.90
2022-09-30T08:19:44.028Z,99.90
2022-09-30T08:22:14.150Z,99.90
2022-09-30T08:24:42.267Z,99.90
2022-09-30T08:27:10.355Z,99.90
2022-09-30T08:29:55.834Z,99.90
2022-09-30T08:32:25.643Z,99.90
2022-09-30T08:34:53.638Z,99.90
2022-09-30T08:37:23.786Z,99.90
2022-09-30T08:39:51.989Z,99.90
2022-09-30T08:42:52.916Z,99.90
2022-09-30T08:45:41.502Z,99.90
2022-09-30T08:48:32.682Z,99.90
2022-09-30T08:51:13.249Z,99.90
2022-09-30T08:53:47.192Z,99.90
2022-09-30T08:56:24.773Z,99.90
2022-09-30T08:58:59.138Z,99.90
2022-09-30T09:01:34.153Z,99.90
2022-09-30T09:04:05.807Z,62.70
2022-09-30T09:06:44.595Z,58.40
2022-09-30T09:09:43.013Z,1.00
2022-09-30T09:12:30.893Z,99.90
2022-09-30T09:15:21.044Z,1.00
2022-09-30T09:18:24.058Z,1.00
2022-09-30T09:20:57.682Z,1.00
2022-09-30T09:23:28.459Z,99.90
2022-09-30T09:25:58.103Z,1.00
2022-09-30T09:28:37.405Z,99.90
2022-09-30T09:31:06.457Z,35.70
2022-09-30T09:33:40.407Z,1.00
2022-09-30T09:36:33.657Z,99.90
2022-09-30T09:39:21.486Z,1.00
2022-09-30T09:42:04.203Z,99.90
2022-09-30T09:44:43.185Z,1.00
2022-09-30T09:47:15.716Z,5.70
2022-09-30T09:49:45.523Z,99.90
2022-09-30T09:52:42.471Z,1.00
2022-09-30T09:55:12.030Z,99.90
2022-09-30T09:57:41.612Z,1.00
2022-09-30T10:00:29.868Z,1.00
2022-09-30T10:03:04.024Z,99.90
2022-09-30T10:05:39.619Z,1.00
2022-09-30T10:08:16.165Z,1.00
2022-09-30T10:10:51.449Z,1.00
2022-09-30T10:13:24.466Z,1.00
2022-09-30T10:15:56.100Z,1.00
2022-09-30T10:18:30.486Z,1.00
2022-09-30T10:21:03.149Z,1.00
2022-09-30T10:23:34.195Z,37.60
2022-09-30T10:26:07.591Z,1.00
2022-09-30T10:28:49.336Z,80.80
2022-09-30T10:31:25.472Z,1.00
2022-09-30T10:34:04.347Z,1.00
2022-09-30T10:36:36.518Z,1.00
2022-09-30T10:39:09.340Z,1.00
2022-09-30T10:41:39.717Z,1.00
2022-09-30T10:44:17.592Z,1.00
2022-09-30T10:46:49.454Z,1.00
2022-09-30T10:49:29.325Z,1.00
2022-09-30T10:51:58.739Z,1.00
2022-09-30T10:54:53.802Z,1.00
2022-09-30T10:57:26.306Z,1.00
2022-09-30T11:00:03.517Z,1.00
2022-09-30T11:02:40.712Z,1.00
2022-09-30T11:05:19.336Z,1.00
2022-09-30T11:07:55.499Z,1.00
2022-09-30T11:10:37.151Z,1.00
2022-09-30T11:13:16.592Z,1.00
2022-09-30T11:16:02.695Z,1.00
2022-09-30T11:18:39.061Z,1.00
2022-09-30T11:21:17.232Z,1.00
2022-09-30T11:23:52.074Z,1.00
2022-09-30T11:26:40.510Z,1.00
2022-09-30T11:29:36.734Z,1.00
2022-09-30T11:32:20.062Z,1.00
2022-09-30T11:35:04.960Z,99.90
2022-09-30T11:37:58.218Z,1.00
2022-09-30T11:40:36.031Z,1.00
2022-09-30T11:43:22.308Z,1.00
2022-09-30T11:46:20.722Z,1.00
2022-09-30T11:49:16.887Z,1.00
2022-09-30T11:51:57.332Z,1.00
2022-09-30T11:54:47.915Z,1.00
2022-09-30T11:57:25.419Z,1.00
2022-09-30T11:59:59.866Z,1.00
2022-09-30T12:02:38.448Z,1.00
2022-09-30T12:05:16.337Z,1.00
2022-09-30T12:07:51.104Z,1.00
2022-09-30T12:10:26.479Z,99.90
2022-09-30T12:13:03.276Z,1.00
2022-09-30T12:15:34.852Z,99.90
2022-09-30T12:18:08.319Z,99.90
2022-09-30T12:20:45.242Z,99.90
2022-09-30T12:23:21.936Z,99.90
2022-09-30T12:25:56.810Z,99.90
2022-09-30T12:28:52.891Z,99.90
2022-09-30T12:32:01.671Z,99.90
2022-09-30T12:34:54.501Z,99.90
2022-09-30T12:37:47.685Z,1.00
2022-09-30T12:40:52.806Z,1.00
2022-09-30T12:44:16.756Z,1.00
2022-09-30T12:47:15.471Z,1.00
2022-09-30T12:49:46.818Z,1.00
2022-09-30T12:52:21.164Z,99.90
2022-09-30T12:54:56.287Z,99.90
2022-09-30T12:57:30.361Z,99.90
2022-09-30T13:00:07.285Z,99.90
2022-09-30T13:02:40.651Z,99.90
2022-09-30T13:05:53.790Z,99.90
2022-09-30T13:08:48.446Z,99.90
2022-09-30T13:11:44.208Z,99.90
2022-09-30T13:14:34.235Z,99.90
2022-09-30T13:17:36.342Z,99.90
2022-09-30T13:20:54.257Z,99.90
2022-09-30T13:23:41.928Z,99.90
2022-09-30T13:26:46.349Z,99.90
2022-09-30T13:29:39.747Z,99.90
2022-09-30T13:32:12.028Z,99.90
2022-09-30T13:34:58.248Z,99.90
2022-09-30T13:37:38.003Z,99.90
2022-09-30T13:40:49.866Z,99.90
2022-09-30T13:43:24.864Z,99.90
2022-09-30T13:45:57.088Z,1.00
2022-09-30T13:48:32.838Z,1.00
2022-09-30T13:51:06.583Z,1.00
2022-09-30T13:53:40.642Z,1.00
2022-09-30T13:56:19.277Z,1.00
2022-09-30T13:59:40.338Z,1.00
2022-09-30T14:02:48.975Z,1.00
2022-09-30T14:05:47.620Z,1.00
2022-09-30T14:08:48.599Z,1.00
2022-09-30T14:11:43.196Z,1.00
2022-09-30T14:14:51.946Z,99.90
2022-09-30T14:17:41.434Z,99.90
2022-09-30T14:20:37.415Z,99.90
2022-09-30T14:23:13.332Z,99.90
2022-09-30T14:25:51.965Z,99.90
2022-09-30T14:28:29.158Z,99.90
2022-09-30T14:31:09.683Z,99.90
2022-09-30T14:33:39.542Z,99.90
2022-09-30T14:36:17.451Z,99.90
2022-09-30T14:38:49.712Z,99.90
2022-09-30T14:41:23.597Z,99.90
2022-09-30T14:43:57.222Z,99.90
2022-09-30T14:46:36.334Z,99.90
2022-09-30T14:49:14.393Z,99.90
2022-09-30T14:51:47.797Z,99.90
2022-09-30T14:54:26.483Z,99.90
2022-09-30T14:56:55.306Z,99.90
2022-09-30T14:59:27.194Z,99.90
2022-09-30T15:02:00.986Z,99.90
2022-09-30T15:04:33.006Z,99.90
2022-09-30T15:07:04.351Z,99.90
2022-09-30T15:09:37.241Z,99.90
2022-09-30T15:12:08.228Z,99.90
2022-09-30T15:14:48.125Z,99.90
2022-09-30T15:17:23.285Z,99.90
2022-09-30T15:19:52.329Z,99.90
2022-09-30T15:22:22.589Z,99.90
2022-09-30T15:24:53.654Z,99.90
2022-09-30T15:27:25.096Z,99.90
2022-09-30T15:29:59.655Z,99.90
2022-09-30T15:32:33.716Z,99.90
2022-09-30T15:35:08.025Z,99.90
2022-09-30T15:37:36.116Z,99.90
2022-09-30T15:40:22.851Z,99.90
2022-09-30T15:42:59.576Z,1.00
2022-09-30T15:45:35.373Z,1.00
2022-09-30T15:48:07.896Z,1.00
2022-09-30T15:50:41.721Z,1.00
2022-09-30T15:53:24.185Z,1.00
2022-09-30T15:55:55.479Z,1.00
2022-09-30T15:58:38.254Z,70.10
2022-09-30T16:01:21.606Z,99.90
2022-09-30T16:03:55.687Z,99.90
2022-09-30T16:06:29.476Z,99.90
2022-09-30T16:09:01.267Z,99.90
2022-09-30T16:11:34.830Z,1.00
2022-09-30T16:14:06.766Z,1.00
2022-09-30T16:16:39.001Z,1.00
2022-09-30T16:19:20.397Z,1.00
2022-09-30T16:21:51.516Z,99.90
2022-09-30T16:24:49.067Z,99.90
2022-09-30T16:27:39.774Z,99.90
2022-09-30T16:30:13.739Z,1.00
2022-09-30T16:32:46.193Z,1.00
2022-09-30T16:35:22.763Z,99.90
2022-09-30T16:38:01.608Z,1.00
2022-09-30T16:40:32.045Z,95.00
2022-09-30T16:43:03.257Z,99.90
2022-09-30T16:45:34.952Z,98.20
2022-09-30T16:48:06.998Z,1.00
2022-09-30T16:50:42.664Z,1.00
2022-09-30T16:53:14.565Z,99.90
2022-09-30T16:55:43.105Z,99.90
2022-09-30T16:58:13.596Z,99.90
2022-09-30T17:00:45.238Z,1.00
2022-09-30T17:03:14.926Z,99.90
2022-09-30T17:05:53.037Z,1.00
2022-09-30T17:08:24.685Z,1.00
2022-09-30T17:10:52.845Z,99.90
2022-09-30T17:13:21.266Z,1.00
2022-09-30T17:15:51.811Z,99.90
2022-09-30T17:18:20.992Z,99.90
2022-09-30T17:20:52.921Z,99.90
2022-09-30T17:23:22.177Z,1.00
2022-09-30T17:25:51.305Z,1.00
2022-09-30T17:28:19.450Z,1.00
2022-09-30T17:30:50.265Z,99.90
2022-09-30T17:33:19.819Z,1.00
2022-09-30T17:36:00.634Z,1.00
2022-09-30T17:38:29.595Z,1.00
2022-09-30T17:41:15.371Z,90.90
2022-09-30T17:43:43.471Z,1.00
2022-09-30T17:46:11.519Z,1.00
2022-09-30T17:48:39.773Z,99.90
2022-09-30T17:51:09.229Z,1.00
2022-09-30T17:53:38.117Z,48.30
2022-09-30T17:56:16.905Z,1.00
2022-09-30T17:58:47.289Z,98.20
2022-09-30T18:01:17.516Z,99.90
2022-09-30T18:03:46.103Z,99.90
2022-09-30T18:06:15.854Z,99.90
2022-09-30T18:08:43.962Z,1.00
2022-09-30T18:11:12.365Z,1.00
2022-09-30T18:13:40.648Z,1.00
2022-09-30T18:16:09.263Z,1.00
2022-09-30T18:18:37.451Z,1.00
2022-09-30T18:21:05.580Z,1.00
2022-09-30T18:23:35.223Z,1.00
2022-09-30T18:26:03.194Z,1.00
2022-09-30T18:28:31.334Z,1.00
2022-09-30T18:31:06.695Z,1.00
2022-09-30T18:33:35.388Z,1.00
2022-09-30T18:36:06.462Z,1.00
2022-09-30T18:38:36.208Z,1.00
2022-09-30T18:41:08.061Z,1.00
2022-09-30T18:43:36.526Z,1.00
2022-09-30T18:46:05.395Z,1.00
2022-09-30T18:48:34.700Z,1.00
2022-09-30T18:51:07.277Z,1.00
2022-09-30T18:53:37.079Z,1.00
2022-09-30T18:56:06.037Z,1.00
2022-09-30T18:58:34.120Z,1.00
2022-09-30T19:01:04.055Z,1.00
2022-09-30T19:03:33.465Z,1.00
2022-09-30T19:06:08.781Z,1.00
2022-09-30T19:08:38.245Z,1.00
2022-09-30T19:11:15.593Z,1.00
2022-09-30T19:13:45.332Z,1.00
2022-09-30T19:16:13.510Z,1.00
2022-09-30T19:18:42.301Z,1.00
2022-09-30T19:21:12.642Z,1.00
2022-09-30T19:23:42.973Z,1.00
2022-09-30T19:26:14.755Z,1.00
2022-09-30T19:28:43.394Z,1.00
2022-09-30T19:31:15.273Z,2.00
2022-09-30T19:33:55.185Z,8.40
2022-09-30T19:36:26.910Z,14.10
2022-09-30T19:39:10.206Z,24.60
2022-09-30T19:41:40.522Z,19.10
2022-09-30T19:44:08.661Z,16.30
2022-09-30T19:46:36.828Z,13.90
2022-09-30T19:49:04.864Z,21.60
2022-09-30T19:51:33.402Z,35.00
2022-09-30T19:54:07.165Z,44.70
2022-09-30T19:56:38.143Z,46.10
2022-09-30T19:59:06.662Z,56.10
2022-09-30T20:01:35.604Z,62.50
2022-09-30T20:04:05.299Z,64.20
2022-09-30T20:06:35.092Z,68.20
2022-09-30T20:09:07.292Z,90.40
2022-09-30T20:11:38.654Z,96.90
2022-09-30T20:14:26.735Z,99.50
2022-09-30T20:16:55.377Z,98.90
2022-09-30T20:19:24.064Z,99.90
2022-09-30T20:21:55.002Z,99.90
2022-09-30T20:24:24.722Z,99.90
2022-09-30T20:26:53.791Z,99.90
2022-09-30T20:29:21.994Z,99.90
2022-09-30T20:31:50.458Z,99.90
2022-09-30T20:34:20.127Z,99.90
2022-09-30T20:36:48.685Z,99.90
2022-09-30T20:39:16.719Z,99.90
2022-09-30T20:41:47.321Z,99.90
2022-09-30T20:44:20.380Z,99.90
2022-09-30T20:46:48.422Z,99.90
2022-09-30T20:49:16.433Z,99.90
2022-09-30T20:51:44.701Z,99.90
2022-09-30T20:54:12.825Z,99.90
2022-09-30T20:57:05.681Z,99.90
2022-09-30T20:59:30.433Z,99.90
2022-09-30T21:01:58.608Z,99.90
2022-09-30T21:04:26.679Z,99.90
2022-09-30T21:06:55.195Z,99.90
2022-09-30T21:09:23.283Z,99.90
2022-09-30T21:11:51.285Z,99.90
2022-09-30T21:14:19.397Z,99.90
2022-09-30T21:16:48.751Z,99.90
2022-09-30T21:19:18.699Z,99.90
2022-09-30T21:21:46.666Z,99.90
2022-09-30T21:24:16.351Z,99.90
2022-09-30T21:26:44.464Z,99.90
2022-09-30T21:29:12.520Z,99.90
2022-09-30T21:31:40.543Z,99.90
2022-09-30T21:34:14.798Z,99.90
2022-09-30T21:36:42.811Z,99.90
2022-09-30T21:39:12.803Z,99.90
2022-09-30T21:41:41.087Z,99.90
2022-09-30T21:44:09.147Z,99.90
2022-09-30T21:46:37.490Z,99.90
2022-09-30T21:49:15.474Z,99.90
2022-09-30T21:51:44.063Z,99.90
2022-09-30T21:54:13.994Z,99.90
2022-09-30T21:56:43.594Z,99.90
2022-09-30T21:59:13.351Z,99.90
2022-09-30T22:01:41.976Z,99.90
2022-09-30T22:04:11.746Z,99.90
2022-09-30T22:06:39.738Z,97.50
2022-09-30T22:09:07.733Z,92.80
2022-09-30T22:11:36.991Z,87.90
2022-09-30T22:14:05.170Z,78.40
2022-09-30T22:16:35.742Z,83.80
2022-09-30T22:19:08.053Z,84.50
2022-09-30T22:21:39.326Z,77.70
2022-09-30T22:24:09.116Z,69.50
2022-09-30T22:26:37.827Z,79.30
2022-09-30T22:29:11.073Z,91.80
2022-09-30T22:31:39.956Z,95.10
2022-09-30T22:34:31.580Z,96.90
2022-09-30T22:37:19.834Z,98.80
2022-09-30T22:39:47.875Z,99.90
2022-09-30T22:42:16.184Z,99.90
2022-09-30T22:44:44.170Z,99.90
2022-09-30T22:47:12.415Z,99.90
2022-09-30T22:49:41.489Z,99.90
2022-09-30T22:52:10.827Z,99.90
2022-09-30T22:54:38.801Z,99.90
2022-09-30T22:57:09.801Z,99.90
2022-09-30T22:59:37.983Z,99.90
2022-09-30T23:02:06.391Z,99.90
2022-09-30T23:04:35.218Z,99.90
2022-09-30T23:07:03.732Z,99.90
2022-09-30T23:09:33.150Z,99.90
2022-09-30T23:12:01.189Z,99.90
2022-09-30T23:14:29.324Z,99.90
2022-09-30T23:16:57.503Z,99.90
2022-09-30T23:19:25.685Z,99.90
2022-09-30T23:21:53.879Z,99.90
2022-09-30T23:24:21.945Z,99.90
2022-09-30T23:26:51.427Z,99.90
2022-09-30T23:29:19.584Z,99.90
2022-09-30T23:31:48.126Z,99.90
2022-09-30T23:34:18.748Z,99.90
2022-09-30T23:36:46.839Z,99.90
2022-09-30T23:39:19.485Z,99.90
2022-09-30T23:41:49.403Z,99.90
2022-09-30T23:44:19.307Z,99.90
2022-09-30T23:47:01.962Z,99.90
2022-09-30T23:49:32.369Z,99.90
2022-09-30T23:52:00.352Z,99.90
2022-09-30T23:54:28.337Z,99.90
2022-09-30T23:56:56.323Z,99.90
2022-09-30T23:59:25.754Z,99.90
